createdAt,value
2018-07-26T00:04:46.642Z,6.80
2018-07-26T00:07:37.299Z,6.40
2018-07-26T00:10:16.099Z,7.00
2018-07-26T00:16:00.908Z,6.90
2018-07-26T00:18:50.646Z,7.22
2018-07-26T00:21:35.229Z,8.77
2018-07-26T00:27:22.346Z,6.60
2018-07-26T00:33:07.791Z,7.97
2018-07-26T00:35:57.654Z,6.70
2018-07-26T00:41:39.333Z,7.43
2018-07-26T00:47:31.797Z,6.90
2018-07-26T00:59:00.551Z,6.00
2018-07-26T01:06:52.111Z,6.67
2018-07-26T01:09:35.823Z,9.30
2018-07-26T01:15:14.474Z,15.00
2018-07-26T01:18:05.877Z,7.00
2018-07-26T01:36:56.533Z,7.50
2018-07-26T01:39:31.552Z,13.90
2018-07-26T01:42:26.039Z,7.90
2018-07-26T01:45:18.071Z,7.47
2018-07-26T01:48:03.345Z,7.08
2018-07-26T01:53:35.441Z,9.07
2018-07-26T01:56:57.873Z,9.57
2018-07-26T01:59:50.943Z,8.43
2018-07-26T02:02:34.483Z,8.13
2018-07-26T02:05:20.144Z,7.80
2018-07-26T02:08:00.696Z,9.03
2018-07-26T02:14:01.282Z,8.80
2018-07-26T02:16:33.063Z,9.53
2018-07-26T02:58:46.457Z,10.08
2018-07-26T03:01:31.957Z,10.43
2018-07-26T03:07:13.084Z,10.80
2018-07-26T03:09:53.631Z,10.67
2018-07-26T03:12:35.334Z,15.00
2018-07-26T03:15:24.669Z,10.23
2018-07-26T03:18:10.388Z,13.00
2018-07-26T03:21:12.958Z,12.20
2018-07-26T03:27:02.078Z,10.97
2018-07-26T03:29:45.111Z,25.80
2018-07-26T03:32:36.733Z,16.60
2018-07-26T03:35:38.098Z,19.13
2018-07-26T03:45:02.388Z,12.90
2018-07-26T03:47:55.624Z,12.13
2018-07-26T03:50:44.449Z,12.30
2018-07-26T03:53:34.204Z,13.93
2018-07-26T03:59:28.689Z,11.43
2018-07-26T04:05:18.079Z,12.27
2018-07-26T04:08:08.192Z,11.57
2018-07-26T04:10:50.635Z,12.13
2018-07-26T04:13:28.962Z,13.13
2018-07-26T04:16:01.484Z,24.43
2018-07-26T04:18:42.588Z,11.97
2018-07-26T04:21:15.448Z,13.77
2018-07-26T04:23:57.171Z,12.53
2018-07-26T04:26:45.388Z,18.70
2018-07-26T04:29:34.433Z,17.20
2018-07-26T04:35:29.278Z,12.53
2018-07-26T04:41:47.059Z,12.63
2018-07-26T04:44:35.374Z,13.67
2018-07-26T04:47:23.849Z,15.20
2018-07-26T04:50:11.268Z,15.13
2018-07-26T04:52:51.660Z,14.20
2018-07-26T04:55:37.450Z,13.72
2018-07-26T04:58:36.398Z,35.27
2018-07-26T05:01:34.699Z,17.93
2018-07-26T05:04:14.927Z,20.83
2018-07-26T05:07:05.343Z,18.20
2018-07-26T05:09:52.280Z,15.90
2018-07-26T05:12:43.204Z,16.43
2018-07-26T05:15:55.697Z,13.60
2018-07-26T05:18:45.817Z,16.83
2018-07-26T05:21:20.263Z,20.80
2018-07-26T05:23:58.969Z,18.97
2018-07-26T05:27:04.260Z,21.43
2018-07-26T05:29:41.327Z,21.33
2018-07-26T05:35:05.320Z,21.60
2018-07-26T05:37:40.953Z,20.20
2018-07-26T05:40:22.557Z,19.37
2018-07-26T05:43:10.876Z,23.13
2018-07-26T05:45:49.767Z,21.87
2018-07-26T05:51:38.261Z,23.17
2018-07-26T05:57:05.460Z,27.37
2018-07-26T05:59:47.786Z,21.17
2018-07-26T06:02:38.016Z,24.80
2018-07-26T06:08:04.121Z,23.90
2018-07-26T06:10:48.373Z,24.27
2018-07-26T06:13:40.575Z,26.70
2018-07-26T06:16:18.956Z,19.93
2018-07-26T06:18:57.902Z,20.97
2018-07-26T06:32:59.244Z,22.77
2018-07-26T06:35:43.785Z,23.73
2018-07-26T16:00:53.820Z,2.40
2018-07-26T16:03:50.871Z,2.10
2018-07-26T16:12:16.518Z,4.37
2018-07-26T16:15:04.419Z,2.93
2018-07-26T16:17:51.278Z,2.83
2018-07-26T16:20:39.187Z,3.70
2018-07-26T16:26:40.452Z,2.67
2018-07-26T16:29:42.823Z,6.53
2018-07-26T16:37:13.995Z,3.13
2018-07-26T16:39:56.400Z,3.97
2018-07-26T16:42:59.535Z,3.37
2018-07-26T16:46:02.453Z,5.30
2018-07-26T16:48:47.533Z,3.13
2018-07-26T16:51:39.494Z,4.10
2018-07-26T17:05:10.755Z,3.57
2018-07-26T17:07:52.665Z,2.90
2018-07-26T17:10:45.259Z,2.87
2018-07-26T17:13:32.169Z,3.03
2018-07-26T17:16:09.335Z,3.00
2018-07-26T17:18:49.715Z,4.00
2018-07-26T17:21:38.610Z,2.80
2018-07-26T17:24:36.690Z,3.17
2018-07-26T17:27:34.297Z,3.40
2018-07-26T17:30:31.124Z,3.23
2018-07-26T19:42:17.503Z,10.53
2018-07-26T19:45:00.692Z,14.63
2018-07-26T19:47:42.899Z,14.73
2018-07-26T19:50:23.380Z,58.90
2018-07-26T19:53:05.702Z,8.35
2018-07-26T19:55:56.886Z,4.40
2018-07-26T20:01:18.535Z,5.27
2018-07-26T20:04:01.741Z,5.00
2018-07-26T20:06:48.570Z,3.97
2018-07-26T20:09:28.805Z,9.63
2018-07-26T20:12:18.723Z,9.33
2018-07-26T20:15:07.409Z,5.37
2018-07-26T20:17:49.753Z,4.60
2018-07-26T20:20:51.749Z,6.80
2018-07-26T20:23:32.639Z,4.93
2018-07-26T20:26:29.002Z,10.53
2018-07-26T20:29:16.412Z,4.30
2018-07-26T20:32:31.673Z,4.20
2018-07-26T20:37:52.103Z,4.63
2018-07-26T20:40:48.899Z,7.05
2018-07-26T20:43:34.862Z,4.07
2018-07-26T20:46:14.907Z,6.63
2018-07-26T20:51:55.003Z,4.73
2018-07-26T20:57:54.868Z,4.80
2018-07-26T21:00:36.949Z,4.10
2018-07-26T21:03:28.908Z,4.10
2018-07-26T21:09:05.036Z,5.90
2018-07-26T21:14:57.168Z,9.40
2018-07-26T21:17:35.228Z,4.07
2018-07-26T21:20:21.564Z,4.10
2018-07-26T21:23:03.289Z,4.17
2018-07-26T21:25:44.295Z,4.10
2018-07-26T21:31:27.152Z,7.13
2018-07-26T21:33:59.446Z,4.83
2018-07-26T21:36:34.409Z,5.53
2018-07-26T21:39:19.302Z,4.30
2018-07-26T21:41:56.972Z,4.63
2018-07-26T21:44:39.140Z,4.27
2018-07-26T21:47:23.134Z,8.13
2018-07-26T21:50:34.794Z,5.40
2018-07-26T21:56:34.263Z,15.43
2018-07-26T21:59:20.485Z,5.13
2018-07-26T22:02:05.081Z,4.57
2018-07-26T22:05:12.764Z,5.13
2018-07-26T22:10:35.716Z,4.50
2018-07-26T22:13:20.514Z,3.60
2018-07-26T22:15:58.120Z,4.43
2018-07-26T22:18:48.121Z,8.30
2018-07-26T22:24:34.425Z,9.07
2018-07-26T22:29:57.085Z,5.00
2018-07-26T22:32:48.472Z,4.53
2018-07-26T22:41:25.676Z,6.97
2018-07-26T22:44:17.629Z,4.10
2018-07-26T22:55:28.917Z,5.87
2018-07-26T22:58:05.098Z,4.67
2018-07-26T23:00:46.046Z,5.20
2018-07-26T23:03:26.485Z,4.67
2018-07-26T23:17:12.714Z,3.90
2018-07-26T23:19:56.065Z,10.43
2018-07-26T23:22:36.552Z,4.73
2018-07-26T23:25:17.549Z,6.80
2018-07-26T23:30:51.829Z,4.93
2018-07-26T23:33:39.833Z,7.50
2018-07-26T23:36:36.497Z,5.80
2018-07-26T23:42:11.520Z,10.37
2018-07-26T23:44:54.979Z,6.97
2018-07-26T23:47:36.221Z,7.33
2018-07-26T23:56:11.866Z,5.17
2018-07-26T23:58:48.026Z,7.20
